Terminal Aerodrome Forecast
Issued by NWS Greer, SC

Home | Current Version | Previous Version | Text Only | Print | Product List | Glossary On
Versions: 1 2 3 4 5 6 7 8 9 10 11 12 13 14 15 16 17 18 19 20 21 22 23 24 25 26
000
FTUS42 KGSP 090536
TAFAVL
TAF
KAVL 090536Z 0906/1006 35009KT P6SM -SHSN SCT025 OVC040
      TEMPO 0906/0910 BKN025 OVC035
     FM091400 33011G20KT P6SM VCSH SCT030 BKN050 PROB30 0915/0921
      4SM -SHSN BKN025
     FM092100 32010KT P6SM BKN060=

USA.gov is the U.S. government's official web portal to all federal, state and local government web resources and services.